createdAt,value
2019-03-20T00:01:45.699Z,3.1
2019-03-20T00:06:50.920Z,3.1
2019-03-20T00:11:56.099Z,3.1
2019-03-20T00:17:01.286Z,3.1
2019-03-20T00:22:08.781Z,3.2
2019-03-20T00:27:14.034Z,3.3
2019-03-20T00:32:19.512Z,3.5
2019-03-20T00:37:24.539Z,3.7
2019-03-20T00:42:29.824Z,3.9
2019-03-20T00:47:35.382Z,4
2019-03-20T00:52:40.579Z,4.2
2019-03-20T00:57:45.639Z,4.4
2019-03-20T01:02:50.914Z,4.6
2019-03-20T01:07:56.139Z,4.7
2019-03-20T01:13:01.352Z,4.7
2019-03-20T01:18:06.832Z,4.8
2019-03-20T01:23:12.035Z,4.8
2019-03-20T01:28:17.439Z,4.8
2019-03-20T01:33:21.242Z,4.7
2019-03-20T01:38:26.532Z,4.7
2019-03-20T01:43:31.747Z,4.6
2019-03-20T01:48:36.994Z,4.5
2019-03-20T01:53:42.254Z,4.3
2019-03-20T01:58:47.585Z,4.1
2019-03-20T02:03:53.168Z,4.1
2019-03-20T02:08:58.274Z,4
2019-03-20T02:14:03.631Z,4
2019-03-20T02:19:11.077Z,4.2
2019-03-20T02:24:17.282Z,4.2
2019-03-20T02:29:22.269Z,4.3
2019-03-20T02:34:27.515Z,4.4
2019-03-20T02:39:32.650Z,4.4
2019-03-20T02:44:37.980Z,4.5
2019-03-20T02:49:43.237Z,4.4
2019-03-20T02:54:48.382Z,4.3
2019-03-20T02:59:53.755Z,4.3
2019-03-20T03:04:59.869Z,4.2
2019-03-20T03:10:05.337Z,4.2
2019-03-20T03:15:10.528Z,4.2
2019-03-20T03:20:15.898Z,4.1
2019-03-20T03:25:23.914Z,4.1
2019-03-20T03:30:27.857Z,4.1
2019-03-20T03:35:31.734Z,4.1
2019-03-20T03:40:36.804Z,4.1
2019-03-20T03:45:43.134Z,4
2019-03-20T03:50:54.256Z,3.8
2019-03-20T03:55:49.392Z,3.8
2019-03-20T04:00:54.529Z,3.7
2019-03-20T04:06:04.021Z,3.6
2019-03-20T04:11:09.369Z,3.5
2019-03-20T04:16:14.606Z,3.6
2019-03-20T04:21:18.524Z,3.5
2019-03-20T04:26:24.052Z,3.4
2019-03-20T04:31:29.196Z,3.3
2019-03-20T04:36:48.363Z,3
2019-03-20T04:41:43.437Z,3
2019-03-20T04:46:48.659Z,2.9
2019-03-20T04:51:53.804Z,2.8
2019-03-20T04:56:59.250Z,2.7
2019-03-20T05:02:04.373Z,2.6
2019-03-20T05:07:09.963Z,2.5
2019-03-20T05:12:15.367Z,2.5
2019-03-20T05:17:20.538Z,2.4
2019-03-20T05:22:25.960Z,2.3
2019-03-20T05:27:31.695Z,2.3
2019-03-20T05:32:36.788Z,2.3
2019-03-20T05:37:42.244Z,2.3
2019-03-20T05:42:47.317Z,2.5
2019-03-20T05:47:52.664Z,2.7
2019-03-20T05:52:57.748Z,3
2019-03-20T05:58:02.938Z,3.1
2019-03-20T06:03:08.036Z,3.1
2019-03-20T06:08:14.046Z,3.4
2019-03-20T06:13:19.047Z,3.4
2019-03-20T06:18:24.564Z,3.6
2019-03-20T06:23:30.076Z,3.8
2019-03-20T06:28:35.271Z,4.1
2019-03-20T06:33:40.668Z,4.7
2019-03-20T06:38:45.987Z,5.4
2019-03-20T06:43:51.265Z,6.3
2019-03-20T06:48:57.338Z,7.1
2019-03-20T06:54:02.632Z,7.9
2019-03-20T06:59:08.060Z,8.6
2019-03-20T07:04:13.254Z,9.4
2019-03-20T07:09:19.445Z,10.2
2019-03-20T07:14:24.660Z,10.2
2019-03-20T07:19:30.279Z,10.8
2019-03-20T07:24:35.366Z,11
2019-03-20T07:29:40.699Z,11
2019-03-20T07:34:44.164Z,11.4
2019-03-20T07:39:49.520Z,12.2
2019-03-20T07:44:55.075Z,12.9
2019-03-20T07:50:00.365Z,14.2
2019-03-20T07:55:05.376Z,14.9
2019-03-20T08:00:11.036Z,15.6
2019-03-20T08:05:16.157Z,16.8
2019-03-20T08:10:21.409Z,17.2
2019-03-20T08:15:26.948Z,18
2019-03-20T08:20:33.094Z,18.9
2019-03-20T08:25:37.095Z,18.8
2019-03-20T08:35:45.982Z,19.5
2019-03-20T08:40:51.270Z,19.8
2019-03-20T08:45:56.290Z,19.7
2019-03-20T08:51:01.569Z,18.9
2019-03-20T08:56:06.640Z,18.4
2019-03-20T09:01:11.901Z,17.9
2019-03-20T09:06:16.818Z,18.3
2019-03-20T09:16:25.797Z,18.7
2019-03-20T09:21:32.054Z,18.4
2019-03-20T09:26:37.130Z,18.5
2019-03-20T09:31:40.780Z,18.8
2019-03-20T09:36:45.939Z,19.1
2019-03-20T09:41:51.328Z,18.8
2019-03-20T09:46:55.032Z,18.8
2019-03-20T09:52:00.789Z,19.4
2019-03-20T09:57:06.048Z,20
2019-03-20T10:02:11.212Z,20.5
2019-03-20T10:07:16.214Z,21.1
2019-03-20T10:12:20.452Z,22
2019-03-20T10:17:25.972Z,22.5
2019-03-20T10:22:31.181Z,23.8
2019-03-20T10:27:36.699Z,24.1
2019-03-20T10:32:42.190Z,24.4
2019-03-20T10:37:47.262Z,24.7
2019-03-20T10:42:53.026Z,25.9
2019-03-20T10:47:58.475Z,25.5
2019-03-20T10:53:03.761Z,25.3
2019-03-20T10:58:09.475Z,25.2
2019-03-20T11:03:14.675Z,25.4
2019-03-20T11:08:19.893Z,26.5
2019-03-20T11:13:25.184Z,27.7
2019-03-20T11:18:30.344Z,27.6
2019-03-20T11:23:35.508Z,26.6
2019-03-20T11:28:41.082Z,25.5
2019-03-20T11:33:46.556Z,25.6
2019-03-20T11:38:51.479Z,25.5
2019-03-20T11:43:56.969Z,26.7
2019-03-20T11:49:02.003Z,27.7
2019-03-20T11:54:07.224Z,28.3
2019-03-20T11:59:12.827Z,28.9
2019-03-20T12:04:18.416Z,29.2
2019-03-20T12:09:23.520Z,29.1
2019-03-20T12:14:28.795Z,29.1
2019-03-20T12:19:45.706Z,29.5
2019-03-20T12:24:39.706Z,29.6
2019-03-20T12:29:44.851Z,31.1
2019-03-20T12:34:50.157Z,30.1
2019-03-20T12:39:55.296Z,29.5
2019-03-20T12:45:01.020Z,29.8
2019-03-20T12:50:06.190Z,29.7
2019-03-20T12:55:11.476Z,28.9
2019-03-20T13:00:16.656Z,28
2019-03-20T13:05:21.792Z,26.7
2019-03-20T13:10:27.393Z,23.9
2019-03-20T13:15:35.324Z,21.7
2019-03-20T13:20:38.957Z,21.5
2019-03-20T13:25:44.369Z,20.4
2019-03-20T13:30:50.894Z,19.1
2019-03-20T13:35:56.034Z,19
2019-03-20T13:41:01.360Z,18.2
2019-03-20T13:46:07.085Z,16.7
2019-03-20T13:51:10.828Z,16.7
2019-03-20T13:56:16.316Z,16.1
2019-03-20T14:01:21.272Z,15.5
2019-03-20T14:06:25.105Z,15.2
2019-03-20T14:11:30.299Z,15
2019-03-20T14:16:35.746Z,14.9
2019-03-20T14:21:41.034Z,14.7
2019-03-20T14:26:46.552Z,14.5
2019-03-20T14:31:51.600Z,14.3
2019-03-20T14:36:57.195Z,14
2019-03-20T14:42:00.797Z,14
2019-03-20T14:47:06.169Z,13.9
2019-03-20T14:52:09.685Z,13.9
2019-03-20T14:57:15.318Z,13.8
2019-03-20T15:02:20.301Z,13.7
2019-03-20T15:07:25.546Z,13.7
2019-03-20T15:12:30.806Z,13.5
2019-03-20T15:17:36.185Z,13.3
2019-03-20T15:22:41.618Z,13
2019-03-20T15:27:47.010Z,13
2019-03-20T15:32:50.851Z,12.9
2019-03-20T15:37:56.386Z,12.8
2019-03-20T15:43:03.469Z,12.6
2019-03-20T15:48:12.540Z,12.5
2019-03-20T15:53:21.789Z,12.4
2019-03-20T15:58:29.302Z,12.2
2019-03-20T16:03:29.025Z,12.2
2019-03-20T16:08:39.352Z,12
2019-03-20T16:13:42.068Z,12
2019-03-20T16:18:49.778Z,11.8
2019-03-20T16:23:55.121Z,11.8
2019-03-20T16:28:59.129Z,11.7
2019-03-20T16:34:04.526Z,11.5
2019-03-20T16:39:09.792Z,11.4
2019-03-20T16:44:14.864Z,11.2
2019-03-20T16:49:20.199Z,11
2019-03-20T16:54:25.429Z,10.9
2019-03-20T16:59:30.774Z,10.7
2019-03-20T17:04:30.994Z,10.5
2019-03-20T17:09:36.585Z,10.3
2019-03-20T17:14:43.646Z,9.9
2019-03-20T17:19:42.161Z,9.9
2019-03-20T17:24:50.249Z,9.8
2019-03-20T17:29:55.576Z,9.6
2019-03-20T17:35:00.761Z,9.4
2019-03-20T17:40:05.067Z,9.2
2019-03-20T17:45:10.592Z,9
2019-03-20T17:50:15.776Z,8.8
2019-03-20T17:55:20.953Z,8.6
2019-03-20T18:00:26.574Z,8.4
2019-03-20T18:05:31.878Z,8.3
2019-03-20T18:10:36.997Z,8.1
2019-03-20T18:15:42.458Z,8
2019-03-20T18:20:48.048Z,7.8
2019-03-20T18:25:52.763Z,7.6
2019-03-20T18:30:58.836Z,7.6
2019-03-20T18:36:06.574Z,7.4
2019-03-20T18:41:13.072Z,7.4
2019-03-20T18:46:18.565Z,7.3
2019-03-20T18:51:23.836Z,7.3
2019-03-20T18:56:29.058Z,7.2
2019-03-20T19:01:34.639Z,7.1
2019-03-20T19:06:39.927Z,7
2019-03-20T19:11:45.409Z,7
2019-03-20T19:16:50.691Z,7
2019-03-20T19:21:56.928Z,6.9
2019-03-20T19:27:02.333Z,6.9
2019-03-20T19:32:07.842Z,6.8
2019-03-20T19:37:13.334Z,6.7
2019-03-20T19:42:23.110Z,6.5
2019-03-20T19:47:28.276Z,6.5
2019-03-20T19:52:33.695Z,6.4
2019-03-20T19:57:39.978Z,6.4
2019-03-20T20:02:45.180Z,6.3
2019-03-20T20:07:51.005Z,6.2
2019-03-20T20:12:56.475Z,6.1
2019-03-20T20:18:01.752Z,5.9
2019-03-20T20:23:07.448Z,5.8
2019-03-20T20:28:13.461Z,5.7
2019-03-20T20:33:19.262Z,5.6
2019-03-20T20:38:24.446Z,5.6
2019-03-20T20:43:29.778Z,5.5
2019-03-20T20:48:34.890Z,5.3
2019-03-20T20:58:49.857Z,5
2019-03-20T21:03:57.200Z,4.9
2019-03-20T21:09:02.677Z,4.8
2019-03-20T21:14:04.303Z,4.7
2019-03-20T21:19:09.403Z,4.7
2019-03-20T21:24:14.960Z,4.4
2019-03-20T21:29:20.109Z,4.3
2019-03-20T21:34:25.491Z,4.4
2019-03-20T21:39:30.741Z,4.4
2019-03-20T21:44:36.011Z,4.4
2019-03-20T21:49:41.124Z,4.4
2019-03-20T21:54:46.510Z,4.4
2019-03-20T21:59:51.725Z,4.4
2019-03-20T22:04:57.104Z,4.3
2019-03-20T22:10:02.348Z,4.2
2019-03-20T22:15:07.641Z,4.1
2019-03-20T22:20:13.179Z,4.1
2019-03-20T22:25:19.011Z,4
2019-03-20T22:30:24.219Z,4
2019-03-20T22:35:29.684Z,3.9
2019-03-20T22:40:34.811Z,3.9
2019-03-20T22:45:40.021Z,3.8
2019-03-20T22:50:45.109Z,3.8
2019-03-20T22:55:50.296Z,3.7
2019-03-20T23:00:55.437Z,3.7
2019-03-20T23:06:00.697Z,3.7
2019-03-20T23:11:05.716Z,3.6
2019-03-20T23:16:11.382Z,3.7
2019-03-20T23:21:16.891Z,3.6
2019-03-20T23:26:22.417Z,3.7
2019-03-20T23:31:27.680Z,3.6
2019-03-20T23:36:31.600Z,3.6
2019-03-20T23:41:36.630Z,3.5
2019-03-20T23:46:42.006Z,3.4
2019-03-20T23:51:47.252Z,3.4
2019-03-20T23:56:52.365Z,3.4
